Legaspi, Philippines
Current Conditions -  °F | °C
As of 10:00 PM on Friday 24 Oct 2014 (Local Time) from RPVM Reporting Station
Broken Clouds Broken Clouds  
Wind Chill: 81°   Ceiling: 30000
Heat Index: 87°   Visibility: 6mi
Dew Point: 77°   Wind: 7mph
Humidity: 89%   Direction: 360°N
Pressure: 29.85"   Gusts: NA
Location:  13.13°N, 123.73°E
Report Text: RPVM 241400Z 36006KT 9999 FEW018CB BKN300 27/25 Q1011 RMK A2985 CB WNW AND SE W/ OCNL LTNG
Loading
Personal Weather Stations






























Interactive Weather Map
Tropical Storm Tracking
New forecast layout! Learn more

10-Day Weather Forecast

Advertisements
Track Severe Weather on mobile